Time;durP1;ratioP1;P1;durP2;ratioP2;P2;SDS_P1;SDS_P2;PMS_P1;PMS_P2;Temp;Humidity;BMP_temperature;BMP_pressure;BME280_temperature;BME280_humidity;BME280_pressure;Samples;Min_cycle;Max_cycle;Signal;HPM_P1;HPM_P2
2022/01/21 00:01:06;;;;;;;24.83;4.60;;;;;;;-0.03;89.41;103363.63;5027566;28;20384;-56
2022/01/21 00:03:32;;;;;;;22.80;4.73;;;;;;;-0.01;89.79;103359.22;5027554;28;20488;-56
2022/01/21 00:05:57;;;;;;;24.77;4.83;;;;;;;0.04;89.84;103361.72;5027512;28;20025;-56
2022/01/21 00:08:23;;;;;;;19.47;4.20;;;;;;;0.09;90.12;103359.84;5028872;28;20029;-56
2022/01/21 00:10:48;;;;;;;22.70;4.63;;;;;;;0.14;90.50;103363.19;5027279;28;20021;-56
2022/01/21 00:13:24;;;;;;;25.03;4.63;;;;;;;0.17;90.36;103373.56;5028463;28;20477;-56
2022/01/21 00:15:50;;;;;;;18.40;4.77;;;;;;;0.14;90.35;103367.56;5027657;28;20403;-55
2022/01/21 00:18:16;;;;;;;25.80;4.90;;;;;;;0.17;90.24;103372.69;5028295;28;20104;-56
2022/01/21 00:31:37;;;;;;;25.63;4.70;;;;;;;0.14;90.90;103365.78;5026123;28;20132;-55
2022/01/21 00:34:02;;;;;;;26.60;4.50;;;;;;;0.14;90.80;103371.03;5028994;28;20045;-56
2022/01/21 00:36:28;;;;;;;24.87;4.53;;;;;;;0.13;90.92;103366.69;5028353;28;20416;-56
2022/01/21 00:38:59;;;;;;;24.73;4.80;;;;;;;0.10;90.66;103379.00;5026999;28;20032;-56
2022/01/21 00:41:28;;;;;;;20.77;4.00;;;;;;;0.07;90.47;103372.09;5027873;28;20148;-55
2022/01/21 00:43:53;;;;;;;;;;;;;;;0.08;90.53;103371.19;5029329;28;20028;-56
2022/01/21 00:46:19;;;;;;;20.37;3.83;;;;;;;0.05;90.56;103373.03;5027037;28;19913;-55
2022/01/21 00:48:45;;;;;;;19.77;4.17;;;;;;;0.02;90.44;103371.34;5027476;28;20041;-55
2022/01/21 00:51:10;;;;;;;23.93;3.60;;;;;;;-0.02;90.54;103369.69;5031910;28;20060;-56
2022/01/21 00:53:35;;;;;;;17.13;3.40;;;;;;;-0.11;90.42;103362.97;5031838;28;20431;-55
2022/01/21 00:56:00;;;;;;;19.07;4.03;;;;;;;-0.17;90.34;103364.88;5031981;28;20026;-55
2022/01/21 00:58:26;;;;;;;25.53;4.03;;;;;;;-0.26;90.16;103373.81;5025728;28;20030;-56
2022/01/21 01:00:51;;;;;;;15.57;3.60;;;;;;;-0.28;90.24;103383.44;5030897;28;20029;-55
2022/01/21 01:03:19;;;;;;;17.37;3.40;;;;;;;-0.28;90.18;103382.59;5031250;28;20030;-54
2022/01/21 01:05:45;;;;;;;19.93;3.57;;;;;;;-0.28;90.30;103382.59;5031892;28;20130;-54
2022/01/21 01:08:11;;;;;;;20.57;3.30;;;;;;;-0.31;90.52;103392.19;5031716;28;20025;-56
2022/01/21 01:11:13;;;;;;;20.77;3.93;;;;;;;-0.35;90.50;103387.94;5030898;28;20033;-55
2022/01/21 01:21:44;;;;;;;17.63;3.03;;;;;;;-0.40;90.83;103379.38;5031368;28;20040;-54
2022/01/21 01:29:22;;;;;;;16.40;3.17;;;;;;;-0.37;91.27;103362.78;5030619;28;20120;-54
2022/01/21 01:31:47;;;;;;;14.43;3.07;;;;;;;-0.35;91.35;103361.84;5030358;28;20025;-56
2022/01/21 01:34:14;;;;;;;18.13;3.27;;;;;;;-0.33;91.59;103359.19;5031514;28;20540;-54
2022/01/21 01:36:42;;;;;;;15.23;2.47;;;;;;;-0.34;91.43;103360.06;5031090;28;20386;-55
2022/01/21 01:39:15;;;;;;;16.07;2.90;;;;;;;-0.36;91.32;103344.44;5028735;28;20560;-56
2022/01/21 01:49:38;;;;;;;12.43;2.30;;;;;;;-0.43;91.34;103366.41;5029444;28;20138;-55
2022/01/21 01:52:08;;;;;;;21.30;2.80;;;;;;;-0.43;91.18;103366.41;5031842;28;20056;-53
2022/01/21 01:54:37;;;;;;;15.60;3.27;;;;;;;-0.45;91.49;103364.72;5030884;28;20106;-53
2022/01/21 01:57:03;;;;;;;18.47;2.77;;;;;;;-0.51;91.38;103352.69;5031080;28;20481;-55
2022/01/21 01:59:29;;;;;;;15.97;2.43;;;;;;;-0.51;91.19;103355.28;5029102;28;20275;-56
2022/01/21 02:01:57;;;;;;;13.70;2.50;;;;;;;-0.51;91.27;103359.66;5030436;28;20504;-54
2022/01/21 02:04:24;;;;;;;14.40;2.28;;;;;;;-0.50;91.32;103363.97;5030145;28;20055;-54
2022/01/21 02:06:50;;;;;;;17.90;2.73;;;;;;;-0.45;91.60;103362.97;5024377;28;20540;-53
2022/01/21 02:09:15;;;;;;;18.93;2.77;;;;;;;-0.42;91.52;103360.28;5029673;28;20025;-55
2022/01/21 02:11:41;;;;;;;17.13;2.77;;;;;;;-0.49;91.75;103358.72;5029060;28;20021;-53
2022/01/21 02:14:10;;;;;;;20.43;2.60;;;;;;;-0.38;91.85;103368.88;5030240;28;20112;-54
2022/01/21 02:22:14;;;;;;;12.02;2.45;;;;;;;-0.32;91.94;103355.69;5029821;28;20031;-54
2022/01/21 02:24:49;;;;;;;13.87;2.50;;;;;;;-0.31;91.72;103357.38;5030795;28;20026;-55
2022/01/21 02:27:15;;;;;;;16.37;2.77;;;;;;;-0.33;91.64;103359.19;5029596;28;20033;-54
2022/01/21 02:29:49;;;;;;;15.13;2.40;;;;;;;-0.37;91.71;103361.00;5029012;28;20031;-56
2022/01/21 02:32:16;;;;;;;13.40;2.23;;;;;;;-0.42;91.63;103355.06;5030533;28;20025;-56
2022/01/21 02:34:43;;;;;;;13.60;2.70;;;;;;;-0.48;91.46;103352.59;5029968;28;20032;-55
2022/01/21 02:37:12;;;;;;;16.77;2.43;;;;;;;-0.54;91.05;103360.59;5030611;28;20084;-56
2022/01/21 02:39:37;;;;;;;17.60;2.20;;;;;;;-0.57;91.60;103351.97;5028150;28;20021;-54
2022/01/21 02:42:03;;;;;;;17.87;2.63;;;;;;;-0.62;91.18;103352.91;5034163;28;20036;-53
2022/01/21 02:44:28;;;;;;;11.17;2.27;;;;;;;-0.62;91.30;103352.91;5030584;28;20144;-54
2022/01/21 02:46:58;;;;;;;10.83;2.40;;;;;;;-0.60;91.56;103350.28;5030101;28;20404;-56
2022/01/21 02:49:24;;;;;;;12.45;2.30;;;;;;;-0.59;91.71;103351.97;5028894;28;20025;-55
2022/01/21 02:51:52;;;;;;;10.80;2.20;;;;;;;-0.53;91.75;103359.69;5024974;28;20595;-56
2022/01/21 02:54:17;;;;;;;17.37;2.47;;;;;;;-0.52;92.07;103361.41;5029419;28;20021;-55
2022/01/21 02:56:42;;;;;;;15.77;2.70;;;;;;;-0.52;92.02;103358.81;5029700;28;20025;-56
2022/01/21 02:59:09;;;;;;;14.03;2.53;;;;;;;-0.53;92.05;103357.09;5027999;28;20021;-54
2022/01/21 03:01:36;;;;;;;13.90;2.83;;;;;;;-0.54;92.24;103350.16;5030220;28;20552;-55
2022/01/21 03:04:04;;;;;;;14.43;2.53;;;;;;;-0.54;91.84;103360.59;5029101;28;20030;-55
2022/01/21 03:06:30;;;;;;;14.87;2.40;;;;;;;-0.54;92.37;103363.19;5029660;28;20024;-54
2022/01/21 03:08:58;;;;;;;13.73;2.20;;;;;;;-0.53;92.00;103366.66;5028425;28;20017;-55
2022/01/21 03:11:39;;;;;;;16.57;2.37;;;;;;;-0.49;92.09;103369.16;5029054;28;20104;-55
2022/01/21 03:14:05;;;;;;;12.57;2.47;;;;;;;-0.47;92.31;103366.50;5028932;28;20042;-54
2022/01/21 03:16:30;;;;;;;16.70;3.03;;;;;;;-0.50;92.06;103370.06;5029713;28;20031;-56
2022/01/21 03:18:56;;;;;;;15.63;3.13;;;;;;;-0.54;92.05;103367.56;5028060;28;20025;-55
2022/01/21 03:21:21;;;;;;;12.47;2.60;;;;;;;-0.59;91.79;103364.19;5029227;28;20382;-54
2022/01/21 03:23:49;;;;;;;14.97;2.67;;;;;;;-0.63;91.88;103377.31;5028774;28;20052;-55
2022/01/21 03:26:20;;;;;;;12.73;2.77;;;;;;;-0.68;91.60;103375.69;5028868;28;20370;-54
2022/01/21 03:28:48;;;;;;;15.27;2.37;;;;;;;-0.70;91.86;103378.34;5028534;28;20051;-54
2022/01/21 03:31:13;;;;;;;15.97;2.67;;;;;;;-0.70;91.95;103380.09;5028534;28;20117;-55
2022/01/21 03:33:39;;;;;;;11.97;2.37;;;;;;;-0.70;91.98;103374.88;5029350;28;20108;-55
2022/01/21 03:36:06;;;;;;;15.83;2.17;;;;;;;-0.70;92.16;103369.66;5029174;28;20440;-56
2022/01/21 03:38:31;;;;;;;14.83;2.70;;;;;;;-0.69;92.23;103381.81;5026115;28;20030;-55
2022/01/21 03:41:09;;;;;;;16.20;2.50;;;;;;;-0.70;92.27;103380.09;5027788;28;20075;-57
2022/01/21 03:43:35;;;;;;;18.80;2.47;;;;;;;-0.72;92.29;103387.97;5028473;28;20026;-54
2022/01/21 03:46:01;;;;;;;17.23;2.90;;;;;;;-0.69;92.32;103385.28;5028928;28;20083;-54
2022/01/21 03:48:28;;;;;;;18.67;2.93;;;;;;;-0.68;92.66;103388.75;5027994;28;20029;-56
2022/01/21 03:50:53;;;;;;;12.23;2.70;;;;;;;-0.63;92.85;103397.31;5027485;28;20057;-56
2022/01/21 04:00:08;;;;;;;15.93;2.73;;;;;;;-0.58;93.11;103405.03;5026328;28;20095;-56
2022/01/21 04:02:33;;;;;;;13.17;2.53;;;;;;;-0.56;93.16;103393.69;5027922;28;20025;-55
2022/01/21 04:04:58;;;;;;;14.70;2.23;;;;;;;-0.53;93.27;103393.63;5028437;28;20037;-55
2022/01/21 04:07:23;;;;;;;17.67;2.27;;;;;;;-0.47;93.64;103383.03;5029292;28;20493;-55
2022/01/21 04:09:49;;;;;;;15.47;2.63;;;;;;;-0.44;93.61;103382.94;5027186;28;20033;-54
2022/01/21 04:12:14;;;;;;;15.43;2.47;;;;;;;-0.41;93.64;103380.25;5029311;28;20032;-55
2022/01/21 04:14:41;;;;;;;18.13;2.43;;;;;;;-0.38;94.05;103382.78;5028726;28;20486;-54
2022/01/21 04:17:06;;;;;;;18.30;2.40;;;;;;;-0.34;94.06;103373.13;5029057;28;20320;-55
2022/01/21 04:19:32;;;;;;;13.07;2.30;;;;;;;-0.31;94.40;103370.44;5027538;28;20323;-55
2022/01/21 04:21:57;;;;;;;18.03;2.37;;;;;;;-0.30;94.31;103369.53;5028705;28;20025;-55
2022/01/21 04:24:22;;;;;;;13.23;2.60;;;;;;;-0.32;94.29;103381.78;5025479;28;20106;-54
2022/01/21 04:26:48;;;;;;;16.07;2.47;;;;;;;-0.33;94.34;103382.69;5025675;28;20454;-55
2022/01/21 04:29:13;;;;;;;14.97;2.43;;;;;;;-0.29;94.49;103380.84;5025561;28;20028;-55
2022/01/21 04:31:38;;;;;;;15.20;2.13;;;;;;;-0.29;94.40;103373.88;5027958;28;20087;-55
2022/01/21 04:34:03;;;;;;;18.30;2.83;;;;;;;-0.26;94.47;103370.34;5028173;28;20212;-56
2022/01/21 04:36:29;;;;;;;15.73;2.50;;;;;;;-0.26;94.48;103370.34;5028264;28;20492;-55
2022/01/21 04:38:57;;;;;;;13.47;2.37;;;;;;;-0.24;94.64;103372.03;5027423;28;20021;-55
2022/01/21 04:47:17;;;;;;;12.27;2.17;;;;;;;-0.24;94.61;103372.03;5025817;28;20057;-55
2022/01/21 04:47:19;;;;;;;15.50;2.20;;;;;;;-0.20;94.84;103375.41;5026244;28;20040;-54
2022/01/21 04:49:47;;;;;;;16.47;2.53;;;;;;;-0.18;94.76;103387.53;5030256;28;20027;-55
2022/01/21 04:52:13;;;;;;;12.25;1.95;;;;;;;-0.17;94.72;103380.56;5029422;28;20017;-56
2022/01/21 04:54:39;;;;;;;16.10;2.17;;;;;;;-0.19;94.63;103375.38;5027838;28;20436;-57
2022/01/21 04:57:05;;;;;;;15.73;2.30;;;;;;;-0.20;94.65;103380.63;5027059;28;20108;-55
2022/01/21 04:59:31;;;;;;;12.50;2.27;;;;;;;-0.23;94.60;103367.66;5025311;28;20064;-55
2022/01/21 05:01:57;;;;;;;12.30;2.43;;;;;;;-0.26;94.35;103363.38;5027564;28;20029;-56
2022/01/21 05:04:22;;;;;;;15.00;2.03;;;;;;;-0.27;94.51;103369.50;5027701;28;20027;-55
2022/01/21 05:06:49;;;;;;;12.40;1.83;;;;;;;-0.38;94.51;103359.31;5027133;28;20025;-56
2022/01/21 05:09:16;;;;;;;11.67;1.90;;;;;;;-0.41;94.31;103376.78;5026137;28;20033;-56
2022/01/21 05:11:47;;;;;;;11.90;2.83;;;;;;;-0.38;94.29;103366.28;5026887;28;20095;-54
2022/01/21 05:14:18;;;;;;;15.67;2.80;;;;;;;-0.34;94.47;103357.47;5024813;28;20025;-56
2022/01/21 05:16:49;;;;;;;20.40;2.77;;;;;;;-0.32;94.86;103364.38;5026335;28;20025;-56
2022/01/21 05:19:16;;;;;;;11.70;2.37;;;;;;;-0.29;94.84;103368.66;5025802;28;20026;-56
2022/01/21 05:21:43;;;;;;;16.73;2.23;;;;;;;-0.29;94.84;103373.88;5027586;28;20025;-54
2022/01/21 05:24:08;;;;;;;14.47;2.43;;;;;;;-0.33;94.68;103370.47;5026694;28;20268;-56
2022/01/21 05:26:37;;;;;;;14.07;1.90;;;;;;;-0.35;94.74;103366.19;5027631;28;20161;-56
2022/01/21 05:29:04;;;;;;;12.33;2.53;;;;;;;-0.38;94.76;103361.91;5026078;28;20029;-56
2022/01/21 05:31:30;;;;;;;14.27;3.13;;;;;;;-0.36;94.48;103365.34;5025520;28;20111;-56
2022/01/21 05:33:55;;;;;;;11.80;2.90;;;;;;;-0.38;94.68;103367.13;5026636;28;20113;-56
2022/01/21 05:36:20;;;;;;;13.10;3.00;;;;;;;-0.41;94.67;103369.81;5030048;28;20025;-54
2022/01/21 05:38:46;;;;;;;12.63;2.70;;;;;;;-0.44;94.47;103375.13;5029752;28;20029;-54
2022/01/21 05:41:12;;;;;;;9.53;2.23;;;;;;;-0.48;94.44;103373.47;5030942;28;20037;-55
2022/01/21 05:43:44;;;;;;;13.10;2.90;;;;;;;-0.48;94.41;103370.03;5030450;28;20587;-56
2022/01/21 05:48:54;;;;;;;10.47;2.00;;;;;;;-0.52;94.66;103373.59;5026207;28;20064;-52
2022/01/21 05:51:20;;;;;;;11.73;2.37;;;;;;;-0.53;94.58;103377.09;5030971;28;20033;-56
2022/01/21 05:53:45;;;;;;;15.40;2.20;;;;;;;-0.53;94.75;103380.56;5031764;28;20025;-56
2022/01/21 05:56:11;;;;;;;9.53;2.10;;;;;;;-0.52;94.65;103384.91;5031101;28;21124;-56
2022/01/21 05:58:37;;;;;;;14.30;2.57;;;;;;;-0.50;94.91;103396.16;5030420;28;20025;-55
2022/01/21 06:01:03;;;;;;;12.00;2.40;;;;;;;-0.49;95.02;103390.03;5030890;28;20029;-56
2022/01/21 06:03:31;;;;;;;10.23;2.00;;;;;;;-0.50;94.93;103401.38;5034910;28;20103;-56
2022/01/21 06:05:57;;;;;;;10.90;2.60;;;;;;;-0.53;94.91;103390.16;5030815;28;20071;-56
2022/01/21 06:08:22;;;;;;;9.53;2.20;;;;;;;-0.54;94.92;103389.28;5030708;28;20025;-56
2022/01/21 06:10:48;;;;;;;11.23;2.17;;;;;;;-0.55;94.70;103381.50;5030238;28;20026;-56
2022/01/21 06:13:16;;;;;;;11.47;2.00;;;;;;;-0.54;94.93;103391.06;5030576;28;20021;-56
2022/01/21 06:15:41;;;;;;;8.37;1.80;;;;;;;-0.55;95.01;103394.56;5030452;28;20028;-56
2022/01/21 06:18:07;;;;;;;14.63;2.30;;;;;;;-0.53;94.88;103398.84;5027245;28;20025;-56
2022/01/21 06:20:32;;;;;;;17.50;2.73;;;;;;;-0.46;95.01;103395.19;5029409;28;20036;-55
2022/01/21 06:22:57;;;;;;;12.40;3.07;;;;;;;-0.39;95.38;103401.97;5030104;28;20091;-55
2022/01/21 06:25:23;;;;;;;14.80;2.67;;;;;;;-0.36;95.57;103401.88;5030259;28;20080;-56
2022/01/21 06:27:48;;;;;;;13.37;3.10;;;;;;;-0.32;95.74;103405.28;5030177;28;20046;-56
2022/01/21 06:30:13;;;;;;;12.43;2.10;;;;;;;-0.29;95.71;103412.19;5028957;28;20562;-56
2022/01/21 06:32:39;;;;;;;11.50;2.30;;;;;;;-0.25;95.74;103416.47;5030658;28;20021;-56
2022/01/21 06:35:05;;;;;;;16.53;2.73;;;;;;;-0.25;95.73;103414.69;5030758;28;20057;-55
2022/01/21 06:37:31;;;;;;;15.80;2.50;;;;;;;-0.23;95.75;103425.09;5030777;28;20075;-56
2022/01/21 06:39:56;;;;;;;15.30;2.77;;;;;;;-0.21;95.88;103431.16;5028988;28;20397;-56
2022/01/21 06:42:24;;;;;;;15.37;2.53;;;;;;;-0.18;95.71;103425.84;5031142;28;20021;-55
2022/01/21 06:44:49;;;;;;;13.50;2.30;;;;;;;-0.19;95.80;103430.22;5030375;28;20513;-55
2022/01/21 06:47:16;;;;;;;9.70;2.40;;;;;;;-0.21;95.78;103426.78;5030844;28;20472;-53
2022/01/21 06:49:41;;;;;;;14.70;2.53;;;;;;;-0.17;95.90;103431.03;5034194;28;20021;-56
2022/01/21 06:52:07;;;;;;;15.07;2.80;;;;;;;-0.15;95.94;103436.22;5030219;28;20388;-56
2022/01/21 06:54:32;;;;;;;13.77;2.90;;;;;;;-0.12;96.01;103442.22;5030206;28;20033;-53
2022/01/21 06:56:57;;;;;;;15.03;3.30;;;;;;;-0.06;96.15;103439.44;5030577;28;20162;-55
2022/01/21 06:59:23;;;;;;;17.43;3.97;;;;;;;0.01;96.39;103444.53;5029307;28;20516;-54
2022/01/21 07:01:48;;;;;;;15.20;3.10;;;;;;;0.03;96.43;103454.06;5029852;28;20604;-56
2022/01/21 07:04:13;;;;;;;19.83;3.13;;;;;;;0.04;96.46;103455.75;5030282;28;20075;-55
2022/01/21 07:06:38;;;;;;;16.17;3.23;;;;;;;0.06;96.36;103451.34;5030225;28;20112;-56
2022/01/21 07:09:04;;;;;;;13.33;3.30;;;;;;;0.08;96.46;103451.31;5029225;28;20032;-56
2022/01/21 07:11:29;;;;;;;12.53;4.10;;;;;;;0.11;96.63;103459.94;5030139;28;20017;-56
2022/01/21 07:13:54;;;;;;;17.03;4.77;;;;;;;0.13;96.36;103454.66;5029884;28;20025;-55
2022/01/21 07:16:20;;;;;;;13.93;5.10;;;;;;;0.16;96.64;103460.66;5029227;28;20029;-52
2022/01/21 07:18:45;;;;;;;16.87;5.57;;;;;;;0.17;96.50;103470.22;5028944;28;20105;-55
2022/01/21 07:21:10;;;;;;;21.03;6.10;;;;;;;0.17;96.74;103462.38;5029289;28;20028;-56
2022/01/21 07:23:36;;;;;;;21.97;5.80;;;;;;;0.20;96.55;103474.50;5030014;28;20052;-56
2022/01/21 07:26:01;;;;;;;16.03;5.73;;;;;;;0.18;96.08;103469.31;5029157;28;20105;-56
2022/01/21 07:28:26;;;;;;;15.80;6.23;;;;;;;0.21;96.59;103478.84;5029764;28;20471;-56
2022/01/21 07:30:52;;;;;;;17.77;6.07;;;;;;;0.22;96.38;103488.41;5028506;28;20045;-56
2022/01/21 07:33:17;;;;;;;17.53;6.37;;;;;;;0.23;96.60;103490.09;5030017;28;20449;-56
2022/01/21 07:35:43;;;;;;;20.87;7.53;;;;;;;0.25;96.46;103502.25;5028987;28;20067;-56
2022/01/21 07:38:08;;;;;;;15.40;7.70;;;;;;;0.28;96.70;103496.06;5029992;28;20079;-56
2022/01/21 07:40:33;;;;;;;21.40;7.50;;;;;;;0.31;96.60;103477.72;5028058;28;20022;-56
2022/01/21 07:42:59;;;;;;;19.83;6.90;;;;;;;0.35;96.64;103462.81;5029179;28;20339;-56
2022/01/21 07:45:24;;;;;;;17.67;7.23;;;;;;;0.36;96.95;103465.41;5025439;28;20040;-56
2022/01/21 07:47:49;;;;;;;14.37;6.80;;;;;;;0.37;96.92;103472.34;5028364;28;20565;-56
2022/01/21 07:50:16;;;;;;;16.30;6.67;;;;;;;0.38;97.20;103465.34;5026139;28;20061;-56
2022/01/21 07:52:41;;;;;;;19.97;6.87;;;;;;;0.41;96.70;103468.75;5025733;28;20481;-57
2022/01/21 07:55:07;;;;;;;13.90;6.93;;;;;;;0.43;96.67;103466.09;5028189;28;20037;-54
2022/01/21 07:57:32;;;;;;;20.70;6.50;;;;;;;0.46;96.83;103451.16;5032905;28;20022;-56
2022/01/21 07:59:57;;;;;;;17.60;6.37;;;;;;;0.48;96.89;103454.59;5028209;28;20025;-56
2022/01/21 08:02:25;;;;;;;15.87;7.37;;;;;;;0.50;97.06;103451.94;5028362;28;20029;-56
2022/01/21 08:04:50;;;;;;;21.80;6.87;;;;;;;0.52;96.91;103453.63;5028094;28;20042;-56
2022/01/21 08:07:15;;;;;;;18.07;6.53;;;;;;;0.57;96.94;103449.13;5025915;28;20029;-55
2022/01/21 08:09:41;;;;;;;22.73;6.63;;;;;;;0.66;97.02;103452.41;5025260;28;20029;-56
2022/01/21 08:12:07;;;;;;;18.23;6.20;;;;;;;0.69;97.15;103450.56;5026527;28;20048;-55
2022/01/21 08:14:32;;;;;;;23.17;6.40;;;;;;;0.77;97.11;103455.56;5028976;28;20017;-55
2022/01/21 08:16:59;;;;;;;16.43;5.83;;;;;;;0.83;97.31;103452.75;5029005;28;20037;-55
2022/01/21 08:19:24;;;;;;;14.63;6.10;;;;;;;0.89;97.19;103437.78;5027458;28;20017;-55
2022/01/21 08:21:49;;;;;;;18.13;5.90;;;;;;;0.92;97.03;103434.22;5028587;28;20104;-55
2022/01/21 08:24:14;;;;;;;11.13;5.77;;;;;;;0.93;96.75;103423.69;5025829;28;20392;-55
2022/01/21 08:26:40;;;;;;;22.30;6.03;;;;;;;0.93;96.70;103415.00;5026754;28;20039;-56
2022/01/21 08:29:06;;;;;;;15.17;5.40;;;;;;;0.96;96.50;103430.59;5027319;28;20021;-55
2022/01/21 08:31:32;;;;;;;16.60;5.83;;;;;;;1.03;96.64;103444.34;5029012;28;20025;-55
2022/01/21 08:33:58;;;;;;;14.70;5.57;;;;;;;1.09;96.61;103447.63;5025656;28;20112;-56
2022/01/21 08:36:25;;;;;;;17.50;5.53;;;;;;;1.15;96.61;103452.69;5025766;28;20461;-55
2022/01/21 08:38:51;;;;;;;13.43;5.17;;;;;;;1.19;96.40;103453.47;5025606;28;20108;-56
2022/01/21 08:41:16;;;;;;;14.83;5.07;;;;;;;1.23;96.39;103455.09;5027116;28;20279;-56
2022/01/21 08:43:42;;;;;;;12.77;5.03;;;;;;;1.27;95.97;103441.00;5026852;28;20484;-56
2022/01/21 08:46:07;;;;;;;14.47;5.10;;;;;;;1.26;95.90;103448.91;5027695;28;20503;-56
2022/01/21 08:48:33;;;;;;;13.03;4.87;;;;;;;1.32;95.82;103460.03;5026433;28;20407;-54
2022/01/21 08:51:01;;;;;;;14.83;5.00;;;;;;;1.34;95.78;103455.63;5026646;28;20048;-56
2022/01/21 08:53:38;;;;;;;20.33;5.17;;;;;;;1.38;95.68;103464.22;5025169;28;20032;-55
2022/01/21 08:56:13;;;;;;;15.53;4.90;;;;;;;1.40;95.50;103467.66;5022904;28;20033;-54
2022/01/21 08:58:39;;;;;;;13.90;5.07;;;;;;;1.37;95.27;103458.13;5025542;28;20037;-55
2022/01/21 09:01:05;;;;;;;16.30;5.43;;;;;;;1.41;95.41;103443.19;5026912;28;20028;-56
2022/01/21 09:03:31;;;;;;;14.37;5.13;;;;;;;1.44;95.24;103445.72;5027741;28;20034;-56
2022/01/21 09:05:57;;;;;;;13.60;4.90;;;;;;;1.46;95.54;103434.31;5028137;28;20030;-56
2022/01/21 09:08:25;;;;;;;15.13;5.50;;;;;;;1.54;95.54;103431.44;5027746;28;20029;-56
2022/01/21 09:10:52;;;;;;;15.90;5.53;;;;;;;1.59;95.43;103431.28;5029685;28;20040;-56
2022/01/21 09:13:17;;;;;;;17.40;5.40;;;;;;;1.64;95.59;103430.22;5031636;28;20493;-56
2022/01/21 09:15:43;;;;;;;16.13;5.83;;;;;;;1.74;95.59;103436.06;5031653;28;20103;-55
2022/01/21 09:18:09;;;;;;;20.47;5.57;;;;;;;1.84;95.85;103427.84;5031781;28;20033;-56
2022/01/21 09:20:36;;;;;;;12.67;4.87;;;;;;;1.95;95.81;103431.84;5031000;28;20461;-56
2022/01/21 09:23:03;;;;;;;13.80;4.87;;;;;;;2.05;95.60;103430.66;5032129;28;20025;-55
2022/01/21 09:25:29;;;;;;;13.13;4.30;;;;;;;2.11;95.62;103428.69;5027334;28;20485;-56
2022/01/21 09:27:54;;;;;;;21.37;5.03;;;;;;;2.20;95.65;103424.88;5030700;28;20124;-55
2022/01/21 09:30:20;;;;;;;15.00;4.77;;;;;;;2.24;95.32;103431.72;5026752;28;20048;-56
2022/01/21 09:32:45;;;;;;;13.10;3.93;;;;;;;2.31;95.43;103432.34;5031962;28;20070;-54
2022/01/21 09:35:10;;;;;;;17.73;4.10;;;;;;;2.33;95.17;103426.19;5031240;28;20087;-56
2022/01/21 09:37:37;;;;;;;18.37;4.53;;;;;;;2.43;95.10;103438.06;5032033;28;20667;-56
2022/01/21 09:40:05;;;;;;;16.93;4.50;;;;;;;2.50;95.08;103446.53;5030415;28;20112;-57
2022/01/21 09:42:35;;;;;;;19.33;4.43;;;;;;;2.60;94.83;103440.09;5032203;28;20125;-55
2022/01/21 09:45:03;;;;;;;12.37;3.90;;;;;;;2.68;94.73;103442.41;5031414;28;20492;-56
2022/01/21 09:47:31;;;;;;;12.23;3.57;;;;;;;2.77;94.82;103453.44;5032134;28;20103;-53
2022/01/21 09:49:57;;;;;;;16.27;4.00;;;;;;;2.84;94.40;103459.31;5027109;28;20029;-54
2022/01/21 09:52:24;;;;;;;13.93;3.73;;;;;;;2.91;94.38;103460.81;5033456;28;20040;-55
2022/01/21 09:54:50;;;;;;;12.47;3.63;;;;;;;2.97;94.41;103465.81;5027910;28;20034;-55
2022/01/21 09:57:20;;;;;;;16.47;4.03;;;;;;;3.04;94.01;103471.69;5031408;28;20057;-54
2022/01/21 09:59:46;;;;;;;11.98;3.58;;;;;;;3.09;94.14;103468.00;5030337;28;20386;-54
2022/01/21 10:02:11;;;;;;;15.90;3.80;;;;;;;3.16;93.81;103465.13;5031357;28;20025;-55
2022/01/21 10:04:47;;;;;;;13.80;4.13;;;;;;;3.20;93.52;103467.59;5030676;28;20017;-55
2022/01/21 10:07:18;;;;;;;20.87;3.93;;;;;;;3.28;93.59;103478.66;5027904;28;20067;-55
2022/01/21 10:09:45;;;;;;;13.83;3.93;;;;;;;3.35;93.33;103488.00;5029796;28;20459;-56
2022/01/21 10:12:11;;;;;;;15.10;3.40;;;;;;;3.42;93.12;103480.75;5031281;28;20542;-55
2022/01/21 10:14:38;;;;;;;14.37;3.23;;;;;;;3.49;93.08;103492.75;5030599;28;20029;-54
2022/01/21 10:17:05;;;;;;;14.33;3.67;;;;;;;3.58;92.78;103488.91;5031531;28;20026;-54
2022/01/21 10:19:35;;;;;;;15.20;3.30;;;;;;;3.71;92.55;103492.75;5029865;28;20378;-56
2022/01/21 10:22:09;;;;;;;17.03;3.40;;;;;;;3.84;92.60;103495.75;5030871;28;20133;-56
2022/01/21 10:24:48;;;;;;;18.53;3.13;;;;;;;4.00;92.86;103497.69;5030759;28;20013;-54
2022/01/21 10:27:22;;;;;;;10.90;2.80;;;;;;;4.11;92.38;103496.41;5029995;28;20550;-56
2022/01/21 10:29:48;;;;;;;16.90;3.37;;;;;;;4.17;91.97;103493.50;5030516;28;20032;-56
2022/01/21 10:32:13;;;;;;;16.03;2.70;;;;;;;4.24;91.69;103506.34;5029008;28;20029;-56
2022/01/21 10:34:41;;;;;;;17.03;3.17;;;;;;;4.26;91.21;103503.63;5030084;28;20075;-57
2022/01/21 10:37:29;;;;;;;17.40;3.37;;;;;;;4.29;91.20;103501.72;5030469;28;20025;-55
2022/01/21 10:40:03;;;;;;;12.87;2.80;;;;;;;4.32;90.80;103498.13;5026855;28;20060;-54
2022/01/21 10:42:29;;;;;;;14.50;2.70;;;;;;;4.35;90.61;103498.00;5030350;28;20495;-55
2022/01/21 10:44:54;;;;;;;16.53;3.00;;;;;;;4.37;90.47;103503.22;5030205;28;20433;-56
2022/01/21 10:47:35;;;;;;;18.67;3.00;;;;;;;4.40;90.49;103511.81;5030508;28;20516;-53
2022/01/21 10:50:22;;;;;;;21.37;3.37;;;;;;;4.42;90.57;103509.13;5029325;28;20554;-53
2022/01/21 10:52:53;;;;;;;18.83;3.20;;;;;;;4.42;90.44;103503.88;5030424;28;20501;-56
2022/01/21 10:55:32;;;;;;;16.23;2.70;;;;;;;4.41;90.78;103489.00;5028415;28;20121;-57
2022/01/21 10:58:14;;;;;;;16.00;3.22;;;;;;;4.38;90.66;103484.72;5026793;28;20095;-56
2022/01/21 11:01:17;;;;;;;21.57;3.30;;;;;;;4.42;91.04;103483.66;5027327;28;20362;-56
2022/01/21 11:04:07;;;;;;;21.17;3.23;;;;;;;4.49;91.37;103476.34;5015471;28;20116;-56
2022/01/21 11:06:44;;;;;;;19.13;3.30;;;;;;;4.56;91.33;103473.38;5026932;28;20022;-56
2022/01/21 11:09:20;;;;;;;19.43;2.90;;;;;;;4.73;91.79;103472.66;5024802;28;20083;-57
2022/01/21 11:11:48;;;;;;;17.70;2.67;;;;;;;4.84;91.86;103462.50;5027076;28;20053;-57
2022/01/21 11:14:19;;;;;;;19.47;3.53;;;;;;;4.92;91.91;103457.75;5026673;28;20091;-57
2022/01/21 11:16:46;;;;;;;21.17;3.43;;;;;;;4.93;91.75;103458.63;5026523;28;20026;-57
2022/01/21 11:19:16;;;;;;;19.87;3.33;;;;;;;4.91;91.10;103447.28;5028133;28;20025;-57
2022/01/21 11:21:45;;;;;;;;;;;;;;;4.92;91.31;103441.97;5030242;28;20408;-57
2022/01/21 11:24:13;;;;;;;15.43;2.40;;;;;;;4.88;90.96;103444.78;5028803;28;20408;-57
2022/01/21 11:26:39;;;;;;;18.47;3.10;;;;;;;4.86;91.05;103429.06;5029420;28;20033;-57
2022/01/21 11:29:06;;;;;;;20.73;3.70;;;;;;;4.86;91.28;103436.94;5028057;28;20045;-56
2022/01/21 11:31:32;;;;;;;17.43;3.20;;;;;;;4.86;91.45;103430.81;5035768;28;20036;-57
2022/01/21 11:33:57;;;;;;;13.50;2.80;;;;;;;4.86;91.53;103436.09;5028286;28;20057;-57
2022/01/21 11:36:23;;;;;;;24.33;3.60;;;;;;;4.86;91.31;103431.69;5022337;28;20064;-56
2022/01/21 11:38:53;;;;;;;16.50;3.03;;;;;;;4.89;91.29;103442.06;5027483;28;20288;-57
2022/01/21 11:41:19;;;;;;;25.13;3.40;;;;;;;4.89;91.20;103441.22;5027224;28;20074;-56
2022/01/21 11:43:52;;;;;;;20.40;3.60;;;;;;;4.92;91.45;103447.22;5025749;28;20033;-56
2022/01/21 11:49:00;;;;;;;15.90;3.20;;;;;;;5.01;91.45;103438.03;5026398;28;20227;-56
2022/01/21 11:51:33;;;;;;;18.47;3.47;;;;;;;5.04;91.34;103437.91;5025860;28;20052;-55
2022/01/21 11:54:03;;;;;;;18.60;2.90;;;;;;;5.08;91.30;103430.72;5028663;28;20113;-55
2022/01/21 11:56:39;;;;;;;15.73;3.10;;;;;;;5.15;91.18;103426.84;5028466;28;20448;-56
2022/01/21 11:59:11;;;;;;;24.73;3.60;;;;;;;5.20;91.52;103425.75;5025248;28;20413;-55
2022/01/21 12:01:47;;;;;;;17.47;2.80;;;;;;;5.25;91.06;103422.88;5026367;28;20048;-56
2022/01/21 12:04:41;;;;;;;21.67;3.20;;;;;;;5.29;90.91;103419.16;5025821;28;20056;-54
2022/01/21 12:07:48;;;;;;;18.80;2.93;;;;;;;5.34;90.71;103411.03;5025835;28;20407;-56
2022/01/21 12:10:13;;;;;;;13.60;2.70;;;;;;;5.35;90.79;103403.06;5023023;28;20056;-55
2022/01/21 12:12:50;;;;;;;18.10;2.90;;;;;;;5.28;90.75;103397.25;5025761;28;20636;-55
2022/01/21 12:15:39;;;;;;;18.57;2.97;;;;;;;5.34;90.26;103401.34;5024808;28;20151;-55
2022/01/21 12:21:02;;;;;;;19.70;3.17;;;;;;;5.44;90.63;103399.97;5021093;28;20033;-55